sensor_id;sensor_type;location;lat;lon;timestamp;pressure;altitude;pressure_sealevel;temperature;humidity
59487;BME280;45298;54.918;73.504;2022-07-17T00:01:40;99141.94;;;23.99;50.84
59487;BME280;45298;54.918;73.504;2022-07-17T00:04:09;99151.56;;;24.22;50.21
59487;BME280;45298;54.918;73.504;2022-07-17T00:06:38;99140.31;;;24.32;49.55
59487;BME280;45298;54.918;73.504;2022-07-17T00:09:07;99140.50;;;23.97;49.95
59487;BME280;45298;54.918;73.504;2022-07-17T00:11:35;99140.28;;;23.08;52.58
59487;BME280;45298;54.918;73.504;2022-07-17T00:14:07;99115.75;;;22.24;53.70
59487;BME280;45298;54.918;73.504;2022-07-17T00:16:36;99138.22;;;21.88;55.36
59487;BME280;45298;54.918;73.504;2022-07-17T00:19:07;99139.69;;;21.54;56.68
59487;BME280;45298;54.918;73.504;2022-07-17T00:21:35;99147.06;;;21.30;57.14
59487;BME280;45298;54.918;73.504;2022-07-17T00:24:04;99144.03;;;21.03;57.55
59487;BME280;45298;54.918;73.504;2022-07-17T00:26:34;99157.69;;;20.87;58.38
59487;BME280;45298;54.918;73.504;2022-07-17T00:29:03;99133.69;;;20.53;59.18
59487;BME280;45298;54.918;73.504;2022-07-17T00:31:32;99166.75;;;20.47;60.00
59487;BME280;45298;54.918;73.504;2022-07-17T00:34:01;99161.22;;;20.26;59.90
59487;BME280;45298;54.918;73.504;2022-07-17T00:36:30;99179.16;;;20.10;61.00
59487;BME280;45298;54.918;73.504;2022-07-17T00:38:58;99173.88;;;19.93;61.37
59487;BME280;45298;54.918;73.504;2022-07-17T00:41:29;99163.53;;;19.74;61.94
59487;BME280;45298;54.918;73.504;2022-07-17T00:44:08;99166.94;;;19.68;62.43
59487;BME280;45298;54.918;73.504;2022-07-17T00:46:38;99181.53;;;19.73;62.82
59487;BME280;45298;54.918;73.504;2022-07-17T00:49:07;99182.22;;;19.67;63.10
59487;BME280;45298;54.918;73.504;2022-07-17T00:51:36;99176.56;;;19.93;62.02
59487;BME280;45298;54.918;73.504;2022-07-17T00:54:06;99175.72;;;21.16;58.65
59487;BME280;45298;54.918;73.504;2022-07-17T00:56:36;99173.88;;;22.20;56.00
59487;BME280;45298;54.918;73.504;2022-07-17T00:59:06;99175.22;;;22.74;54.53
59487;BME280;45298;54.918;73.504;2022-07-17T01:01:35;99168.31;;;23.29;53.25
59487;BME280;45298;54.918;73.504;2022-07-17T01:04:04;99179.31;;;23.69;51.78
59487;BME280;45298;54.918;73.504;2022-07-17T01:06:35;99176.13;;;24.01;51.04
59487;BME280;45298;54.918;73.504;2022-07-17T01:09:04;99181.16;;;24.24;50.71
59487;BME280;45298;54.918;73.504;2022-07-17T01:11:33;99190.78;;;24.47;50.17
59487;BME280;45298;54.918;73.504;2022-07-17T01:14:02;99188.28;;;24.65;49.77
59487;BME280;45298;54.918;73.504;2022-07-17T01:16:32;99163.88;;;24.45;49.87
59487;BME280;45298;54.918;73.504;2022-07-17T01:19:01;99195.41;;;24.73;49.89
59487;BME280;45298;54.918;73.504;2022-07-17T01:21:44;99199.78;;;24.94;49.72
59487;BME280;45298;54.918;73.504;2022-07-17T01:24:14;99206.84;;;25.15;49.32
59487;BME280;45298;54.918;73.504;2022-07-17T01:26:47;99205.84;;;24.96;49.44
59487;BME280;45298;54.918;73.504;2022-07-17T01:29:17;99216.25;;;24.86;50.04
59487;BME280;45298;54.918;73.504;2022-07-17T01:31:46;99191.16;;;24.17;51.00
59487;BME280;45298;54.918;73.504;2022-07-17T01:34:17;99199.88;;;24.05;52.04
59487;BME280;45298;54.918;73.504;2022-07-17T01:36:45;99215.91;;;24.00;52.64
59487;BME280;45298;54.918;73.504;2022-07-17T01:39:17;99212.19;;;23.66;53.62
59487;BME280;45298;54.918;73.504;2022-07-17T01:41:45;99206.19;;;23.29;54.77
59487;BME280;45298;54.918;73.504;2022-07-17T01:44:14;99214.91;;;23.24;55.47
59487;BME280;45298;54.918;73.504;2022-07-17T01:46:45;99217.81;;;23.22;55.81
59487;BME280;45298;54.918;73.504;2022-07-17T01:49:17;99217.84;;;23.01;56.28
59487;BME280;45298;54.918;73.504;2022-07-17T01:51:46;99227.06;;;22.85;57.10
59487;BME280;45298;54.918;73.504;2022-07-17T01:54:17;99228.44;;;23.02;56.84
59487;BME280;45298;54.918;73.504;2022-07-17T01:56:45;99205.34;;;23.00;56.40
59487;BME280;45298;54.918;73.504;2022-07-17T01:59:14;99242.97;;;22.94;57.20
59487;BME280;45298;54.918;73.504;2022-07-17T02:01:42;99250.25;;;22.72;57.99
59487;BME280;45298;54.918;73.504;2022-07-17T02:04:11;99241.38;;;22.57;58.13
59487;BME280;45298;54.918;73.504;2022-07-17T02:06:40;99233.31;;;22.42;58.92
59487;BME280;45298;54.918;73.504;2022-07-17T02:09:08;99240.59;;;22.63;58.79
59487;BME280;45298;54.918;73.504;2022-07-17T02:11:37;99240.16;;;22.59;58.66
59487;BME280;45298;54.918;73.504;2022-07-17T02:14:05;99248.88;;;22.55;58.95
59487;BME280;45298;54.918;73.504;2022-07-17T02:16:34;99238.66;;;22.35;59.50
59487;BME280;45298;54.918;73.504;2022-07-17T02:19:02;99267.53;;;22.34;60.21
59487;BME280;45298;54.918;73.504;2022-07-17T02:21:31;99264.41;;;22.16;61.52
59487;BME280;45298;54.918;73.504;2022-07-17T02:24:00;99269.41;;;22.34;60.50
59487;BME280;45298;54.918;73.504;2022-07-17T02:26:29;99255.59;;;22.07;60.94
59487;BME280;45298;54.918;73.504;2022-07-17T02:28:57;99270.09;;;22.21;61.18
59487;BME280;45298;54.918;73.504;2022-07-17T02:31:26;99270.81;;;22.30;60.98
59487;BME280;45298;54.918;73.504;2022-07-17T02:33:55;99285.75;;;22.11;60.82
59487;BME280;45298;54.918;73.504;2022-07-17T02:36:23;99275.53;;;21.91;61.79
59487;BME280;45298;54.918;73.504;2022-07-17T02:38:52;99274.69;;;22.06;61.42
59487;BME280;45298;54.918;73.504;2022-07-17T02:41:21;99263.78;;;21.99;61.29
59487;BME280;45298;54.918;73.504;2022-07-17T02:43:49;99285.97;;;21.94;61.48
59487;BME280;45298;54.918;73.504;2022-07-17T02:46:18;99309.50;;;21.85;62.69
59487;BME280;45298;54.918;73.504;2022-07-17T02:48:47;99294.63;;;21.74;62.32
59487;BME280;45298;54.918;73.504;2022-07-17T02:51:18;99322.06;;;21.93;62.06
59487;BME280;45298;54.918;73.504;2022-07-17T02:53:47;99321.16;;;21.86;62.54
59487;BME280;45298;54.918;73.504;2022-07-17T02:56:15;99329.88;;;21.58;62.85
59487;BME280;45298;54.918;73.504;2022-07-17T02:58:44;99294.34;;;21.01;63.48
59487;BME280;45298;54.918;73.504;2022-07-17T03:01:13;99319.97;;;20.97;64.63
59487;BME280;45298;54.918;73.504;2022-07-17T03:03:41;99332.38;;;20.83;64.99
59487;BME280;45298;54.918;73.504;2022-07-17T03:06:10;99338.19;;;20.63;65.75
59487;BME280;45298;54.918;73.504;2022-07-17T03:08:39;99346.69;;;20.20;67.06
59487;BME280;45298;54.918;73.504;2022-07-17T03:11:08;99358.88;;;20.00;67.52
59487;BME280;45298;54.918;73.504;2022-07-17T03:13:37;99337.63;;;19.48;68.55
59487;BME280;45298;54.918;73.504;2022-07-17T03:16:05;99365.34;;;19.32;69.48
59487;BME280;45298;54.918;73.504;2022-07-17T03:18:34;99367.72;;;19.02;70.38
59487;BME280;45298;54.918;73.504;2022-07-17T03:21:03;99380.75;;;18.81;71.48
59487;BME280;45298;54.918;73.504;2022-07-17T03:23:34;99376.84;;;18.58;71.78
59487;BME280;45298;54.918;73.504;2022-07-17T03:26:03;99368.91;;;18.40;72.50
59487;BME280;45298;54.918;73.504;2022-07-17T03:28:32;99367.78;;;18.17;72.73
59487;BME280;45298;54.918;73.504;2022-07-17T03:31:00;99369.09;;;18.04;73.12
59487;BME280;45298;54.918;73.504;2022-07-17T03:33:29;99378.53;;;18.17;73.13
59487;BME280;45298;54.918;73.504;2022-07-17T03:35:57;99396.06;;;18.37;73.09
59487;BME280;45298;54.918;73.504;2022-07-17T03:38:26;99380.63;;;18.39;72.38
59487;BME280;45298;54.918;73.504;2022-07-17T03:40:55;99386.38;;;18.45;71.51
59487;BME280;45298;54.918;73.504;2022-07-17T03:43:24;99382.00;;;18.43;71.72
59487;BME280;45298;54.918;73.504;2022-07-17T03:45:54;99402.22;;;18.64;72.01
59487;BME280;45298;54.918;73.504;2022-07-17T03:48:25;99402.56;;;18.78;71.29
59487;BME280;45298;54.918;73.504;2022-07-17T03:50:54;99393.53;;;18.87;71.12
59487;BME280;45298;54.918;73.504;2022-07-17T03:53:22;99397.09;;;19.04;70.54
59487;BME280;45298;54.918;73.504;2022-07-17T03:55:51;99379.13;;;18.96;70.43
59487;BME280;45298;54.918;73.504;2022-07-17T03:58:19;99410.06;;;19.17;70.24
59487;BME280;45298;54.918;73.504;2022-07-17T04:00:48;99408.06;;;19.44;69.42
59487;BME280;45298;54.918;73.504;2022-07-17T04:03:17;99404.66;;;19.75;68.64
59487;BME280;45298;54.918;73.504;2022-07-17T04:05:45;99403.16;;;19.81;67.83
59487;BME280;45298;54.918;73.504;2022-07-17T04:08:17;99397.06;;;19.87;67.26
59487;BME280;45298;54.918;73.504;2022-07-17T04:10:46;99382.47;;;19.89;66.56
59487;BME280;45298;54.918;73.504;2022-07-17T04:13:15;99395.59;;;20.32;66.08
59487;BME280;45298;54.918;73.504;2022-07-17T04:15:48;99385.22;;;20.52;66.09
59487;BME280;45298;54.918;73.504;2022-07-17T04:18:23;99366.34;;;20.61;65.05
59487;BME280;45298;54.918;73.504;2022-07-17T04:20:53;99400.59;;;20.75;65.34
59487;BME280;45298;54.918;73.504;2022-07-17T04:23:22;99397.03;;;20.51;64.73
59487;BME280;45298;54.918;73.504;2022-07-17T04:25:51;99402.34;;;20.68;65.08
59487;BME280;45298;54.918;73.504;2022-07-17T04:28:20;99404.66;;;20.79;65.69
59487;BME280;45298;54.918;73.504;2022-07-17T04:30:49;99410.38;;;20.85;64.87
59487;BME280;45298;54.918;73.504;2022-07-17T04:33:18;99423.09;;;20.91;64.87
59487;BME280;45298;54.918;73.504;2022-07-17T04:35:46;99399.59;;;20.85;64.37
59487;BME280;45298;54.918;73.504;2022-07-17T04:38:15;99427.63;;;20.98;64.26
59487;BME280;45298;54.918;73.504;2022-07-17T04:40:44;99419.72;;;21.43;64.68
59487;BME280;45298;54.918;73.504;2022-07-17T04:43:14;99427.25;;;21.71;61.55
59487;BME280;45298;54.918;73.504;2022-07-17T04:45:43;99417.41;;;21.79;61.63
59487;BME280;45298;54.918;73.504;2022-07-17T04:48:11;99428.97;;;22.02;60.71
59487;BME280;45298;54.918;73.504;2022-07-17T04:50:43;99434.63;;;21.78;60.57
59487;BME280;45298;54.918;73.504;2022-07-17T04:53:11;99429.94;;;21.48;60.07
59487;BME280;45298;54.918;73.504;2022-07-17T04:55:40;99418.19;;;21.41;59.74
59487;BME280;45298;54.918;73.504;2022-07-17T04:58:09;99395.75;;;21.25;59.58
59487;BME280;45298;54.918;73.504;2022-07-17T05:00:37;99411.16;;;21.55;58.91
59487;BME280;45298;54.918;73.504;2022-07-17T05:03:06;99422.31;;;21.90;58.63
59487;BME280;45298;54.918;73.504;2022-07-17T05:05:35;99394.41;;;22.28;58.22
59487;BME280;45298;54.918;73.504;2022-07-17T05:08:04;99402.69;;;22.56;58.77
59487;BME280;45298;54.918;73.504;2022-07-17T05:10:33;99399.63;;;22.59;57.90
59487;BME280;45298;54.918;73.504;2022-07-17T05:13:01;99413.81;;;22.83;56.48
59487;BME280;45298;54.918;73.504;2022-07-17T05:15:30;99411.25;;;22.60;56.79
59487;BME280;45298;54.918;73.504;2022-07-17T05:18:07;99423.72;;;22.76;55.75
59487;BME280;45298;54.918;73.504;2022-07-17T05:20:36;99424.09;;;22.73;55.82
59487;BME280;45298;54.918;73.504;2022-07-17T05:23:04;99416.47;;;22.61;55.96
59487;BME280;45298;54.918;73.504;2022-07-17T05:25:33;99440.59;;;22.78;55.22
59487;BME280;45298;54.918;73.504;2022-07-17T05:28:01;99416.59;;;22.90;54.89
59487;BME280;45298;54.918;73.504;2022-07-17T05:30:30;99430.19;;;23.18;53.53
59487;BME280;45298;54.918;73.504;2022-07-17T05:32:59;99445.25;;;23.06;53.07
59487;BME280;45298;54.918;73.504;2022-07-17T05:35:31;99434.09;;;23.16;53.93
59487;BME280;45298;54.918;73.504;2022-07-17T05:37:59;99444.78;;;23.02;52.79
59487;BME280;45298;54.918;73.504;2022-07-17T05:40:28;99427.34;;;22.83;53.01
59487;BME280;45298;54.918;73.504;2022-07-17T05:42:57;99442.63;;;22.76;52.53
59487;BME280;45298;54.918;73.504;2022-07-17T05:45:26;99438.25;;;22.75;52.09
59487;BME280;45298;54.918;73.504;2022-07-17T05:47:55;99450.00;;;22.82;52.25
59487;BME280;45298;54.918;73.504;2022-07-17T05:50:23;99435.59;;;22.97;52.07
59487;BME280;45298;54.918;73.504;2022-07-17T05:52:52;99456.97;;;23.13;52.47
59487;BME280;45298;54.918;73.504;2022-07-17T05:55:21;99420.72;;;23.07;52.57
59487;BME280;45298;54.918;73.504;2022-07-17T05:57:50;99435.25;;;23.43;51.88
59487;BME280;45298;54.918;73.504;2022-07-17T06:00:19;99449.09;;;23.83;52.83
59487;BME280;45298;54.918;73.504;2022-07-17T06:02:48;99453.31;;;24.14;51.03
59487;BME280;45298;54.918;73.504;2022-07-17T06:05:16;99451.53;;;24.28;50.60
59487;BME280;45298;54.918;73.504;2022-07-17T06:07:47;99444.53;;;24.12;49.26
59487;BME280;45298;54.918;73.504;2022-07-17T06:10:16;99459.50;;;24.08;49.52
59487;BME280;45298;54.918;73.504;2022-07-17T06:12:45;99467.69;;;24.15;49.83
59487;BME280;45298;54.918;73.504;2022-07-17T06:15:14;99456.44;;;24.18;49.52
59487;BME280;45298;54.918;73.504;2022-07-17T06:17:42;99455.13;;;24.42;49.67
59487;BME280;45298;54.918;73.504;2022-07-17T06:20:13;99466.06;;;24.63;48.86
59487;BME280;45298;54.918;73.504;2022-07-17T06:22:42;99457.53;;;24.59;48.82
59487;BME280;45298;54.918;73.504;2022-07-17T06:25:11;99455.59;;;24.53;48.26
59487;BME280;45298;54.918;73.504;2022-07-17T06:27:41;99459.34;;;24.52;48.83
59487;BME280;45298;54.918;73.504;2022-07-17T06:30:14;99457.31;;;24.67;47.69
59487;BME280;45298;54.918;73.504;2022-07-17T06:32:43;99456.50;;;24.67;47.39
59487;BME280;45298;54.918;73.504;2022-07-17T06:35:14;99472.22;;;24.85;47.72
59487;BME280;45298;54.918;73.504;2022-07-17T06:37:43;99429.94;;;24.97;47.26
59487;BME280;45298;54.918;73.504;2022-07-17T06:40:12;99447.09;;;25.18;47.51
59487;BME280;45298;54.918;73.504;2022-07-17T06:42:41;99460.03;;;25.29;46.93
59487;BME280;45298;54.918;73.504;2022-07-17T06:45:10;99471.25;;;24.99;47.32
59487;BME280;45298;54.918;73.504;2022-07-17T06:47:39;99452.84;;;24.88;47.15
59487;BME280;45298;54.918;73.504;2022-07-17T06:50:08;99469.22;;;25.15;45.57
59487;BME280;45298;54.918;73.504;2022-07-17T06:52:38;99452.06;;;25.01;44.83
59487;BME280;45298;54.918;73.504;2022-07-17T06:55:15;99450.84;;;25.17;45.63
59487;BME280;45298;54.918;73.504;2022-07-17T06:57:44;99465.09;;;25.46;45.85
59487;BME280;45298;54.918;73.504;2022-07-17T07:00:13;99475.56;;;25.56;44.75
59487;BME280;45298;54.918;73.504;2022-07-17T07:02:45;99467.13;;;25.17;45.63
59487;BME280;45298;54.918;73.504;2022-07-17T07:05:14;99475.91;;;25.19;45.75
59487;BME280;45298;54.918;73.504;2022-07-17T07:07:43;99463.69;;;24.88;46.49
59487;BME280;45298;54.918;73.504;2022-07-17T07:10:11;99484.59;;;24.94;45.92
59487;BME280;45298;54.918;73.504;2022-07-17T07:12:40;99461.00;;;25.01;44.59
59487;BME280;45298;54.918;73.504;2022-07-17T07:15:09;99477.59;;;25.33;44.49
59487;BME280;45298;54.918;73.504;2022-07-17T07:17:40;99478.81;;;25.31;44.69
59487;BME280;45298;54.918;73.504;2022-07-17T07:20:09;99468.59;;;25.26;45.19
59487;BME280;45298;54.918;73.504;2022-07-17T07:22:39;99490.59;;;25.52;43.03
59487;BME280;45298;54.918;73.504;2022-07-17T07:25:10;99475.94;;;25.32;41.60
59487;BME280;45298;54.918;73.504;2022-07-17T07:27:39;99492.44;;;25.38;42.21
59487;BME280;45298;54.918;73.504;2022-07-17T07:30:08;99440.31;;;24.80;41.88
59487;BME280;45298;54.918;73.504;2022-07-17T07:32:40;99474.63;;;25.08;42.31
59487;BME280;45298;54.918;73.504;2022-07-17T07:35:09;99477.50;;;25.00;40.32
59487;BME280;45298;54.918;73.504;2022-07-17T07:37:38;99497.97;;;25.02;40.76
59487;BME280;45298;54.918;73.504;2022-07-17T07:40:08;99486.31;;;25.09;41.11
59487;BME280;45298;54.918;73.504;2022-07-17T07:42:36;99481.34;;;25.19;41.30
59487;BME280;45298;54.918;73.504;2022-07-17T07:45:06;99503.47;;;25.23;40.18
59487;BME280;45298;54.918;73.504;2022-07-17T07:47:46;99498.22;;;25.14;40.38
59487;BME280;45298;54.918;73.504;2022-07-17T07:50:15;99491.31;;;25.12;41.13
59487;BME280;45298;54.918;73.504;2022-07-17T07:52:44;99468.41;;;25.28;39.68
59487;BME280;45298;54.918;73.504;2022-07-17T07:55:14;99487.22;;;25.43;39.35
59487;BME280;45298;54.918;73.504;2022-07-17T07:57:50;99483.84;;;25.41;40.36
59487;BME280;45298;54.918;73.504;2022-07-17T08:00:28;99477.84;;;25.65;39.02
59487;BME280;45298;54.918;73.504;2022-07-17T08:02:58;99501.28;;;25.93;39.69
59487;BME280;45298;54.918;73.504;2022-07-17T08:05:27;99489.34;;;25.81;39.93
59487;BME280;45298;54.918;73.504;2022-07-17T08:07:55;99502.75;;;25.76;40.40
59487;BME280;45298;54.918;73.504;2022-07-17T08:10:31;99495.19;;;25.64;40.61
59487;BME280;45298;54.918;73.504;2022-07-17T08:13:02;99491.47;;;25.79;40.05
59487;BME280;45298;54.918;73.504;2022-07-17T08:15:31;99502.34;;;25.79;40.91
59487;BME280;45298;54.918;73.504;2022-07-17T08:18:00;99477.22;;;25.63;39.42
59487;BME280;45298;54.918;73.504;2022-07-17T08:20:29;99502.53;;;25.98;39.69
59487;BME280;45298;54.918;73.504;2022-07-17T08:22:57;99500.00;;;26.03;39.23
59487;BME280;45298;54.918;73.504;2022-07-17T08:25:34;99501.25;;;26.07;40.04
59487;BME280;45298;54.918;73.504;2022-07-17T08:28:05;99473.25;;;26.00;40.10
59487;BME280;45298;54.918;73.504;2022-07-17T08:30:33;99493.09;;;25.73;39.80
59487;BME280;45298;54.918;73.504;2022-07-17T08:33:04;99497.69;;;25.53;39.91
59487;BME280;45298;54.918;73.504;2022-07-17T08:35:35;99505.66;;;25.61;40.00
59487;BME280;45298;54.918;73.504;2022-07-17T08:38:04;99487.19;;;25.36;40.17
59487;BME280;45298;54.918;73.504;2022-07-17T08:40:35;99507.72;;;25.65;40.27
59487;BME280;45298;54.918;73.504;2022-07-17T08:43:05;99513.38;;;25.91;39.05
59487;BME280;45298;54.918;73.504;2022-07-17T08:45:35;99504.81;;;26.07;38.75
59487;BME280;45298;54.918;73.504;2022-07-17T08:48:14;99507.31;;;26.29;40.13
59487;BME280;45298;54.918;73.504;2022-07-17T08:50:45;99499.38;;;26.28;38.87
59487;BME280;45298;54.918;73.504;2022-07-17T08:53:14;99514.88;;;26.27;38.69
59487;BME280;45298;54.918;73.504;2022-07-17T08:55:43;99518.63;;;26.19;38.56
59487;BME280;45298;54.918;73.504;2022-07-17T08:58:16;99519.69;;;26.25;39.29
59487;BME280;45298;54.918;73.504;2022-07-17T09:00:44;99513.59;;;26.03;39.51
59487;BME280;45298;54.918;73.504;2022-07-17T09:03:14;99521.94;;;25.68;40.31
59487;BME280;45298;54.918;73.504;2022-07-17T09:05:45;99524.25;;;25.71;40.61
59487;BME280;45298;54.918;73.504;2022-07-17T09:08:19;99534.28;;;25.77;40.31
59487;BME280;45298;54.918;73.504;2022-07-17T09:10:51;99517.34;;;25.88;40.43
59487;BME280;45298;54.918;73.504;2022-07-17T09:13:24;99518.81;;;26.04;40.17
59487;BME280;45298;54.918;73.504;2022-07-17T09:16:06;99546.66;;;26.20;39.43
59487;BME280;45298;54.918;73.504;2022-07-17T09:18:49;99516.09;;;25.91;39.88
59487;BME280;45298;54.918;73.504;2022-07-17T09:21:24;99532.41;;;26.11;39.49
59487;BME280;45298;54.918;73.504;2022-07-17T09:26:33;99528.03;;;26.23;38.62
59487;BME280;45298;54.918;73.504;2022-07-17T09:29:03;99530.31;;;26.06;38.98
59487;BME280;45298;54.918;73.504;2022-07-17T09:31:32;99534.09;;;26.19;39.36
59487;BME280;45298;54.918;73.504;2022-07-17T09:34:01;99522.41;;;26.18;38.42
59487;BME280;45298;54.918;73.504;2022-07-17T09:36:30;99538.28;;;26.21;37.44
59487;BME280;45298;54.918;73.504;2022-07-17T09:38:59;99509.00;;;25.97;37.75
59487;BME280;45298;54.918;73.504;2022-07-17T09:41:28;99538.72;;;26.18;37.02
59487;BME280;45298;54.918;73.504;2022-07-17T09:44:02;99541.19;;;26.27;37.74
59487;BME280;45298;54.918;73.504;2022-07-17T09:46:36;99541.59;;;26.10;37.44
59487;BME280;45298;54.918;73.504;2022-07-17T09:49:07;99534.91;;;26.19;36.98
59487;BME280;45298;54.918;73.504;2022-07-17T09:51:40;99547.47;;;26.20;35.89
59487;BME280;45298;54.918;73.504;2022-07-17T09:54:21;99535.31;;;26.09;37.13
59487;BME280;45298;54.918;73.504;2022-07-17T09:56:51;99535.94;;;25.71;36.53
59487;BME280;45298;54.918;73.504;2022-07-17T09:59:19;99544.88;;;25.52;37.09
59487;BME280;45298;54.918;73.504;2022-07-17T10:01:49;99539.91;;;25.55;38.81
59487;BME280;45298;54.918;73.504;2022-07-17T10:04:18;99547.66;;;25.72;38.13
59487;BME280;45298;54.918;73.504;2022-07-17T10:06:47;99516.50;;;25.68;37.01
59487;BME280;45298;54.918;73.504;2022-07-17T10:09:16;99552.66;;;25.95;37.11
59487;BME280;45298;54.918;73.504;2022-07-17T10:11:45;99551.22;;;25.99;34.20
59487;BME280;45298;54.918;73.504;2022-07-17T10:14:16;99556.66;;;25.86;33.66
59487;BME280;45298;54.918;73.504;2022-07-17T10:16:48;99552.47;;;25.83;34.06
59487;BME280;45298;54.918;73.504;2022-07-17T10:19:20;99504.19;;;25.65;34.49
59487;BME280;45298;54.918;73.504;2022-07-17T10:21:57;99561.25;;;26.05;35.15
59487;BME280;45298;54.918;73.504;2022-07-17T10:24:29;99560.84;;;26.08;35.20
59487;BME280;45298;54.918;73.504;2022-07-17T10:27:00;99551.63;;;25.96;36.86
59487;BME280;45298;54.918;73.504;2022-07-17T10:29:35;99551.63;;;25.83;37.68
59487;BME280;45298;54.918;73.504;2022-07-17T10:32:19;99539.91;;;25.69;38.56
59487;BME280;45298;54.918;73.504;2022-07-17T10:34:59;99538.66;;;25.71;37.73
59487;BME280;45298;54.918;73.504;2022-07-17T10:42:47;99572.72;;;25.94;37.29
59487;BME280;45298;54.918;73.504;2022-07-17T10:45:28;99566.25;;;25.75;37.44
59487;BME280;45298;54.918;73.504;2022-07-17T10:50:54;99570.59;;;25.49;37.29
59487;BME280;45298;54.918;73.504;2022-07-17T10:53:33;99566.59;;;25.45;37.27
59487;BME280;45298;54.918;73.504;2022-07-17T10:56:06;99584.19;;;25.62;38.52
59487;BME280;45298;54.918;73.504;2022-07-17T10:58:40;99590.06;;;25.73;35.93
59487;BME280;45298;54.918;73.504;2022-07-17T11:01:12;99573.06;;;25.50;35.36
59487;BME280;45298;54.918;73.504;2022-07-17T11:08:54;99580.81;;;25.54;37.70
59487;BME280;45298;54.918;73.504;2022-07-17T11:14:20;99550.88;;;25.27;37.65
59487;BME280;45298;54.918;73.504;2022-07-17T11:16:51;99581.22;;;25.44;37.65
59487;BME280;45298;54.918;73.504;2022-07-17T11:19:29;99573.41;;;25.27;38.71
59487;BME280;45298;54.918;73.504;2022-07-17T11:22:05;99587.00;;;25.34;38.21
59487;BME280;45298;54.918;73.504;2022-07-17T11:24:44;99586.13;;;25.20;37.10
59487;BME280;45298;54.918;73.504;2022-07-17T11:27:22;99587.31;;;25.11;38.39
59487;BME280;45298;54.918;73.504;2022-07-17T11:29:52;99578.56;;;25.09;37.44
59487;BME280;45298;54.918;73.504;2022-07-17T11:32:22;99588.59;;;25.15;37.18
59487;BME280;45298;54.918;73.504;2022-07-17T11:34:51;99584.84;;;25.16;37.51
59487;BME280;45298;54.918;73.504;2022-07-17T11:37:20;99567.25;;;24.98;36.76
59487;BME280;45298;54.918;73.504;2022-07-17T11:39:50;99592.53;;;25.12;37.61
59487;BME280;45298;54.918;73.504;2022-07-17T11:42:21;99590.47;;;25.14;37.37
59487;BME280;45298;54.918;73.504;2022-07-17T11:44:52;99597.34;;;25.10;38.24
59487;BME280;45298;54.918;73.504;2022-07-17T11:47:24;99575.75;;;24.88;38.69
59487;BME280;45298;54.918;73.504;2022-07-17T11:50:12;99592.50;;;24.99;38.87
59487;BME280;45298;54.918;73.504;2022-07-17T11:52:44;99598.16;;;25.04;38.83
59487;BME280;45298;54.918;73.504;2022-07-17T11:55:13;99594.16;;;25.00;40.03
59487;BME280;45298;54.918;73.504;2022-07-17T11:57:47;99590.66;;;25.06;39.01
59487;BME280;45298;54.918;73.504;2022-07-17T12:00:18;99606.72;;;25.08;38.63
59487;BME280;45298;54.918;73.504;2022-07-17T12:03:04;99603.91;;;24.87;39.64
59487;BME280;45298;54.918;73.504;2022-07-17T12:05:35;99603.06;;;24.87;39.24
59487;BME280;45298;54.918;73.504;2022-07-17T12:08:08;99595.13;;;24.85;39.28
59487;BME280;45298;54.918;73.504;2022-07-17T12:10:39;99603.94;;;24.94;39.41
59487;BME280;45298;54.918;73.504;2022-07-17T12:13:13;99610.00;;;24.96;39.38
59487;BME280;45298;54.918;73.504;2022-07-17T12:15:45;99616.63;;;24.87;38.64
59487;BME280;45298;54.918;73.504;2022-07-17T12:18:27;99617.84;;;24.78;39.43
59487;BME280;45298;54.918;73.504;2022-07-17T12:21:02;99607.97;;;24.70;40.09
59487;BME280;45298;54.918;73.504;2022-07-17T12:23:38;99603.97;;;24.66;39.52
59487;BME280;45298;54.918;73.504;2022-07-17T12:26:15;99617.06;;;24.62;39.96
59487;BME280;45298;54.918;73.504;2022-07-17T12:28:46;99621.06;;;24.66;39.27
59487;BME280;45298;54.918;73.504;2022-07-17T12:31:15;99619.19;;;24.67;38.73
59487;BME280;45298;54.918;73.504;2022-07-17T12:33:44;99630.22;;;24.65;39.60
59487;BME280;45298;54.918;73.504;2022-07-17T12:36:13;99623.53;;;24.61;40.18
59487;BME280;45298;54.918;73.504;2022-07-17T12:38:42;99625.09;;;24.70;40.49
59487;BME280;45298;54.918;73.504;2022-07-17T12:41:11;99624.69;;;24.73;39.31
59487;BME280;45298;54.918;73.504;2022-07-17T12:43:40;99633.56;;;24.67;39.42
59487;BME280;45298;54.918;73.504;2022-07-17T12:46:09;99615.28;;;24.48;39.78
59487;BME280;45298;54.918;73.504;2022-07-17T12:48:45;99608.19;;;24.47;40.75
59487;BME280;45298;54.918;73.504;2022-07-17T12:51:14;99642.09;;;24.64;39.69
59487;BME280;45298;54.918;73.504;2022-07-17T12:53:43;99630.34;;;24.50;40.03
59487;BME280;45298;54.918;73.504;2022-07-17T12:56:14;99638.91;;;24.54;40.56
59487;BME280;45298;54.918;73.504;2022-07-17T12:58:44;99640.34;;;24.50;40.42
59487;BME280;45298;54.918;73.504;2022-07-17T13:01:13;99639.44;;;24.42;39.43
59487;BME280;45298;54.918;73.504;2022-07-17T13:03:42;99647.38;;;24.44;39.51
59487;BME280;45298;54.918;73.504;2022-07-17T13:06:11;99655.19;;;24.32;39.15
59487;BME280;45298;54.918;73.504;2022-07-17T13:08:39;99655.91;;;24.19;39.33
59487;BME280;45298;54.918;73.504;2022-07-17T13:11:08;99655.84;;;24.12;39.35
59487;BME280;45298;54.918;73.504;2022-07-17T13:13:38;99625.66;;;23.94;39.39
59487;BME280;45298;54.918;73.504;2022-07-17T13:16:12;99654.94;;;24.05;39.17
59487;BME280;45298;54.918;73.504;2022-07-17T13:18:41;99639.56;;;23.91;39.89
59487;BME280;45298;54.918;73.504;2022-07-17T13:21:10;99653.50;;;23.88;40.17
59487;BME280;45298;54.918;73.504;2022-07-17T13:23:40;99665.63;;;23.92;40.11
59487;BME280;45298;54.918;73.504;2022-07-17T13:26:09;99667.88;;;23.88;40.00